Portada
METAR-TAF:

METAR-TAF

Aeroports :

William H. Morse State Airport

Bennington, Vermont, Estats Units d'Amèrica

latitud: 42-53-24N, longitud: 073-14-47W, altitud: 252 m

Observació

L'informe es va fer fa 13 minuts, a les 18:54 UTC
Vent 4 kt del Sud-Est
Temperatura 4°C
Humitat 70%
Pressió 1019 hPa
Visibilitat: 16.1 km
Escasses núvols a una alçada de 2000 ft

METAR: KDDH 211854Z AUTO 14004KT 10SM FEW020 04/M01 A3010 RMK AO2 SLP200 T00391011

Hora: 14:07 (19:07 UTC)


TAF: manca

Observacions i pronòstics meteorològics de més de 4000 aeroports (METAR i TAF).

Les estacions disponibles són els punts grocs i vermells al mapa.

Posi el ratolí al punt desitjat per veure el nom de l'estació.

Feu clic per veure les observacions i els pronòstics meteorològics.

Per canviar el mapa: feu clic els botons verds amb una creu de color negre per apropar; al botó verd amb un guió per allunyar la imatge; o en les fletxes verdes per a mapes adjacents.


METAR-TAF: